sensor_id;sensor_type;location;lat;lon;timestamp;P1;durP1;ratioP1;P2;durP2;ratioP2
85613;SDS011;76041;50.924;3.932;2024-03-23T00:55:35;27.63;;;6.18;;
85613;SDS011;76041;50.924;3.932;2024-03-23T00:58:00;22.80;;;5.95;;
85613;SDS011;76041;50.924;3.932;2024-03-23T01:00:26;26.27;;;5.53;;
85613;SDS011;76041;50.924;3.932;2024-03-23T01:02:53;30.70;;;6.05;;
85613;SDS011;76041;50.924;3.932;2024-03-23T01:05:18;38.88;;;6.22;;
85613;SDS011;76041;50.924;3.932;2024-03-23T01:07:44;25.50;;;5.78;;
85613;SDS011;76041;50.924;3.932;2024-03-23T01:10:10;26.58;;;6.93;;
85613;SDS011;76041;50.924;3.932;2024-03-23T01:12:36;28.25;;;6.43;;
85613;SDS011;76041;50.924;3.932;2024-03-23T01:15:02;31.17;;;7.55;;
85613;SDS011;76041;50.924;3.932;2024-03-23T01:17:28;28.30;;;7.75;;
85613;SDS011;76041;50.924;3.932;2024-03-23T01:19:54;29.80;;;7.57;;
85613;SDS011;76041;50.924;3.932;2024-03-23T01:22:19;26.80;;;7.95;;
85613;SDS011;76041;50.924;3.932;2024-03-23T01:24:45;24.98;;;8.15;;
85613;SDS011;76041;50.924;3.932;2024-03-23T01:27:11;30.98;;;8.48;;
85613;SDS011;76041;50.924;3.932;2024-03-23T01:29:37;34.65;;;8.45;;
85613;SDS011;76041;50.924;3.932;2024-03-23T01:32:04;31.88;;;9.02;;
85613;SDS011;76041;50.924;3.932;2024-03-23T01:34:30;29.67;;;8.00;;
85613;SDS011;76041;50.924;3.932;2024-03-23T01:36:56;34.60;;;9.20;;
85613;SDS011;76041;50.924;3.932;2024-03-23T01:39:22;33.88;;;9.23;;
85613;SDS011;76041;50.924;3.932;2024-03-23T01:41:48;33.75;;;9.25;;
85613;SDS011;76041;50.924;3.932;2024-03-23T01:44:14;24.77;;;9.00;;
85613;SDS011;76041;50.924;3.932;2024-03-23T01:46:40;31.90;;;9.02;;
85613;SDS011;76041;50.924;3.932;2024-03-23T01:49:07;25.05;;;8.38;;
85613;SDS011;76041;50.924;3.932;2024-03-23T01:51:33;36.42;;;8.70;;
85613;SDS011;76041;50.924;3.932;2024-03-23T01:54:01;31.35;;;8.50;;
85613;SDS011;76041;50.924;3.932;2024-03-23T01:56:29;28.45;;;8.32;;
85613;SDS011;76041;50.924;3.932;2024-03-23T01:58:55;44.35;;;9.23;;
85613;SDS011;76041;50.924;3.932;2024-03-23T02:01:21;35.67;;;8.88;;
85613;SDS011;76041;50.924;3.932;2024-03-23T02:03:49;23.60;;;9.63;;
85613;SDS011;76041;50.924;3.932;2024-03-23T02:06:14;26.05;;;8.60;;
85613;SDS011;76041;50.924;3.932;2024-03-23T02:08:40;27.00;;;8.43;;
85613;SDS011;76041;50.924;3.932;2024-03-23T02:11:06;25.75;;;7.70;;
85613;SDS011;76041;50.924;3.932;2024-03-23T02:13:32;22.85;;;7.65;;
85613;SDS011;76041;50.924;3.932;2024-03-23T02:15:58;30.63;;;8.00;;
85613;SDS011;76041;50.924;3.932;2024-03-23T02:18:24;24.30;;;7.53;;
85613;SDS011;76041;50.924;3.932;2024-03-23T02:20:50;34.53;;;7.85;;
85613;SDS011;76041;50.924;3.932;2024-03-23T02:23:16;24.90;;;6.75;;
85613;SDS011;76041;50.924;3.932;2024-03-23T02:25:43;22.02;;;7.07;;
85613;SDS011;76041;50.924;3.932;2024-03-23T02:28:09;22.60;;;6.50;;
85613;SDS011;76041;50.924;3.932;2024-03-23T02:30:36;23.02;;;6.75;;
85613;SDS011;76041;50.924;3.932;2024-03-23T02:33:03;25.10;;;6.20;;
85613;SDS011;76041;50.924;3.932;2024-03-23T02:35:29;28.77;;;6.80;;
85613;SDS011;76041;50.924;3.932;2024-03-23T02:37:55;23.02;;;6.88;;
85613;SDS011;76041;50.924;3.932;2024-03-23T02:40:25;29.30;;;7.07;;
85613;SDS011;76041;50.924;3.932;2024-03-23T02:42:52;25.70;;;6.78;;
85613;SDS011;76041;50.924;3.932;2024-03-23T02:45:18;22.67;;;6.03;;
85613;SDS011;76041;50.924;3.932;2024-03-23T02:47:44;17.38;;;5.43;;
85613;SDS011;76041;50.924;3.932;2024-03-23T02:50:10;17.75;;;5.50;;
85613;SDS011;76041;50.924;3.932;2024-03-23T02:52:36;24.63;;;5.53;;
85613;SDS011;76041;50.924;3.932;2024-03-23T02:55:02;24.90;;;5.53;;
85613;SDS011;76041;50.924;3.932;2024-03-23T02:57:29;21.33;;;4.90;;
85613;SDS011;76041;50.924;3.932;2024-03-23T02:59:55;22.60;;;5.45;;
85613;SDS011;76041;50.924;3.932;2024-03-23T03:02:21;20.98;;;4.47;;
85613;SDS011;76041;50.924;3.932;2024-03-23T03:04:47;17.98;;;5.30;;
85613;SDS011;76041;50.924;3.932;2024-03-23T03:07:13;23.92;;;5.78;;
85613;SDS011;76041;50.924;3.932;2024-03-23T03:09:39;22.23;;;4.95;;
85613;SDS011;76041;50.924;3.932;2024-03-23T03:12:05;21.90;;;5.43;;
85613;SDS011;76041;50.924;3.932;2024-03-23T03:14:31;19.00;;;4.90;;
85613;SDS011;76041;50.924;3.932;2024-03-23T03:16:57;21.80;;;5.00;;
85613;SDS011;76041;50.924;3.932;2024-03-23T03:19:23;20.63;;;4.93;;
85613;SDS011;76041;50.924;3.932;2024-03-23T03:21:49;16.75;;;4.93;;
85613;SDS011;76041;50.924;3.932;2024-03-23T03:24:15;22.45;;;4.68;;
85613;SDS011;76041;50.924;3.932;2024-03-23T03:26:42;15.55;;;4.50;;
85613;SDS011;76041;50.924;3.932;2024-03-23T03:29:08;18.90;;;4.50;;
85613;SDS011;76041;50.924;3.932;2024-03-23T03:31:34;11.38;;;3.90;;
85613;SDS011;76041;50.924;3.932;2024-03-23T03:34:00;21.33;;;5.18;;
85613;SDS011;76041;50.924;3.932;2024-03-23T03:36:26;16.63;;;3.70;;
85613;SDS011;76041;50.924;3.932;2024-03-23T03:38:52;13.65;;;3.80;;
85613;SDS011;76041;50.924;3.932;2024-03-23T03:41:18;17.70;;;4.90;;
85613;SDS011;76041;50.924;3.932;2024-03-23T03:43:44;24.23;;;4.85;;
85613;SDS011;76041;50.924;3.932;2024-03-23T03:46:13;19.30;;;4.78;;
85613;SDS011;76041;50.924;3.932;2024-03-23T03:48:39;17.60;;;4.30;;
85613;SDS011;76041;50.924;3.932;2024-03-23T03:51:05;15.95;;;4.63;;
85613;SDS011;76041;50.924;3.932;2024-03-23T03:53:30;21.30;;;4.93;;
85613;SDS011;76041;50.924;3.932;2024-03-23T03:56:00;20.17;;;5.15;;
85613;SDS011;76041;50.924;3.932;2024-03-23T03:58:27;25.45;;;4.93;;
85613;SDS011;76041;50.924;3.932;2024-03-23T04:00:53;21.35;;;5.63;;
85613;SDS011;76041;50.924;3.932;2024-03-23T04:03:19;13.80;;;5.00;;
85613;SDS011;76041;50.924;3.932;2024-03-23T04:05:51;22.05;;;5.25;;
85613;SDS011;76041;50.924;3.932;2024-03-23T04:08:18;19.85;;;4.60;;
85613;SDS011;76041;50.924;3.932;2024-03-23T04:10:44;18.02;;;4.78;;
85613;SDS011;76041;50.924;3.932;2024-03-23T04:13:11;15.38;;;4.60;;
85613;SDS011;76041;50.924;3.932;2024-03-23T04:15:37;21.55;;;5.32;;
85613;SDS011;76041;50.924;3.932;2024-03-23T04:18:03;17.33;;;4.65;;
85613;SDS011;76041;50.924;3.932;2024-03-23T04:20:29;19.55;;;5.00;;
85613;SDS011;76041;50.924;3.932;2024-03-23T04:22:55;17.05;;;3.90;;
85613;SDS011;76041;50.924;3.932;2024-03-23T04:25:21;21.30;;;4.60;;
85613;SDS011;76041;50.924;3.932;2024-03-23T04:27:47;24.52;;;5.43;;
85613;SDS011;76041;50.924;3.932;2024-03-23T04:30:13;16.95;;;5.20;;
85613;SDS011;76041;50.924;3.932;2024-03-23T04:32:39;16.70;;;4.72;;
85613;SDS011;76041;50.924;3.932;2024-03-23T04:35:05;15.32;;;6.20;;
85613;SDS011;76041;50.924;3.932;2024-03-23T04:37:34;20.77;;;5.18;;
85613;SDS011;76041;50.924;3.932;2024-03-23T04:40:06;22.55;;;5.82;;
85613;SDS011;76041;50.924;3.932;2024-03-23T04:42:32;23.75;;;5.20;;
85613;SDS011;76041;50.924;3.932;2024-03-23T04:44:59;14.32;;;4.60;;
85613;SDS011;76041;50.924;3.932;2024-03-23T04:47:25;16.48;;;4.95;;
85613;SDS011;76041;50.924;3.932;2024-03-23T04:49:51;22.90;;;4.35;;
85613;SDS011;76041;50.924;3.932;2024-03-23T04:52:17;17.73;;;4.10;;
85613;SDS011;76041;50.924;3.932;2024-03-23T04:54:43;27.35;;;4.97;;
85613;SDS011;76041;50.924;3.932;2024-03-23T04:57:10;17.05;;;4.57;;
85613;SDS011;76041;50.924;3.932;2024-03-23T04:59:36;18.73;;;4.45;;
85613;SDS011;76041;50.924;3.932;2024-03-23T05:02:02;10.20;;;3.38;;
85613;SDS011;76041;50.924;3.932;2024-03-23T05:04:28;14.00;;;3.63;;
85613;SDS011;76041;50.924;3.932;2024-03-23T05:06:54;23.58;;;3.70;;
85613;SDS011;76041;50.924;3.932;2024-03-23T05:09:20;14.90;;;2.90;;
85613;SDS011;76041;50.924;3.932;2024-03-23T05:11:47;18.70;;;3.28;;
85613;SDS011;76041;50.924;3.932;2024-03-23T05:14:13;12.20;;;2.70;;
85613;SDS011;76041;50.924;3.932;2024-03-23T05:16:39;19.55;;;3.15;;
85613;SDS011;76041;50.924;3.932;2024-03-23T05:19:05;22.08;;;3.13;;
85613;SDS011;76041;50.924;3.932;2024-03-23T05:21:31;12.45;;;2.70;;
85613;SDS011;76041;50.924;3.932;2024-03-23T05:23:57;15.98;;;2.65;;
85613;SDS011;76041;50.924;3.932;2024-03-23T05:26:23;11.70;;;3.33;;
85613;SDS011;76041;50.924;3.932;2024-03-23T05:28:49;18.55;;;2.25;;
85613;SDS011;76041;50.924;3.932;2024-03-23T05:31:28;14.07;;;2.95;;
85613;SDS011;76041;50.924;3.932;2024-03-23T05:33:55;21.70;;;3.33;;
85613;SDS011;76041;50.924;3.932;2024-03-23T05:36:21;20.13;;;3.05;;
85613;SDS011;76041;50.924;3.932;2024-03-23T05:38:49;21.42;;;2.75;;
85613;SDS011;76041;50.924;3.932;2024-03-23T05:41:16;15.75;;;2.42;;
85613;SDS011;76041;50.924;3.932;2024-03-23T05:43:41;18.90;;;2.95;;
85613;SDS011;76041;50.924;3.932;2024-03-23T05:46:07;16.00;;;2.42;;
85613;SDS011;76041;50.924;3.932;2024-03-23T05:48:34;11.40;;;3.33;;
85613;SDS011;76041;50.924;3.932;2024-03-23T05:51:00;14.40;;;2.75;;
85613;SDS011;76041;50.924;3.932;2024-03-23T05:53:26;19.48;;;3.08;;
85613;SDS011;76041;50.924;3.932;2024-03-23T05:56:01;16.15;;;2.50;;
85613;SDS011;76041;50.924;3.932;2024-03-23T05:58:32;19.27;;;3.15;;
85613;SDS011;76041;50.924;3.932;2024-03-23T06:00:59;17.20;;;2.40;;
85613;SDS011;76041;50.924;3.932;2024-03-23T06:03:26;17.73;;;3.47;;
85613;SDS011;76041;50.924;3.932;2024-03-23T06:05:56;14.50;;;2.80;;
85613;SDS011;76041;50.924;3.932;2024-03-23T06:08:22;12.02;;;2.55;;
85613;SDS011;76041;50.924;3.932;2024-03-23T06:10:49;18.05;;;2.97;;
85613;SDS011;76041;50.924;3.932;2024-03-23T06:13:16;19.58;;;2.78;;
85613;SDS011;76041;50.924;3.932;2024-03-23T06:15:43;19.75;;;2.92;;
85613;SDS011;76041;50.924;3.932;2024-03-23T06:18:09;14.10;;;2.72;;
85613;SDS011;76041;50.924;3.932;2024-03-23T06:20:35;17.58;;;3.20;;
85613;SDS011;76041;50.924;3.932;2024-03-23T06:23:01;16.95;;;3.00;;
85613;SDS011;76041;50.924;3.932;2024-03-23T06:25:28;24.27;;;3.35;;
85613;SDS011;76041;50.924;3.932;2024-03-23T06:27:55;13.55;;;2.30;;
85613;SDS011;76041;50.924;3.932;2024-03-23T06:30:20;15.40;;;2.80;;
85613;SDS011;76041;50.924;3.932;2024-03-23T06:32:47;11.73;;;2.47;;
85613;SDS011;76041;50.924;3.932;2024-03-23T06:35:12;16.85;;;3.13;;
85613;SDS011;76041;50.924;3.932;2024-03-23T06:37:38;17.92;;;2.33;;
85613;SDS011;76041;50.924;3.932;2024-03-23T06:40:06;11.52;;;2.20;;
85613;SDS011;76041;50.924;3.932;2024-03-23T06:42:35;11.93;;;2.28;;
85613;SDS011;76041;50.924;3.932;2024-03-23T06:45:01;14.25;;;2.25;;
85613;SDS011;76041;50.924;3.932;2024-03-23T06:47:28;14.32;;;2.95;;
85613;SDS011;76041;50.924;3.932;2024-03-23T06:49:54;14.05;;;2.88;;
85613;SDS011;76041;50.924;3.932;2024-03-23T06:52:20;14.15;;;2.92;;
85613;SDS011;76041;50.924;3.932;2024-03-23T06:54:46;19.75;;;2.65;;
85613;SDS011;76041;50.924;3.932;2024-03-23T06:57:12;12.15;;;3.05;;
85613;SDS011;76041;50.924;3.932;2024-03-23T06:59:38;12.65;;;2.65;;
85613;SDS011;76041;50.924;3.932;2024-03-23T07:02:04;13.05;;;2.05;;
85613;SDS011;76041;50.924;3.932;2024-03-23T07:04:33;25.05;;;3.03;;
85613;SDS011;76041;50.924;3.932;2024-03-23T07:07:00;20.00;;;3.22;;
85613;SDS011;76041;50.924;3.932;2024-03-23T07:09:27;28.15;;;3.17;;
85613;SDS011;76041;50.924;3.932;2024-03-23T07:11:54;21.10;;;2.92;;
85613;SDS011;76041;50.924;3.932;2024-03-23T07:14:21;24.20;;;3.47;;
85613;SDS011;76041;50.924;3.932;2024-03-23T07:16:48;13.02;;;1.73;;
85613;SDS011;76041;50.924;3.932;2024-03-23T07:19:15;28.83;;;3.10;;
85613;SDS011;76041;50.924;3.932;2024-03-23T07:21:42;12.45;;;2.92;;
85613;SDS011;76041;50.924;3.932;2024-03-23T07:24:08;11.82;;;2.60;;
85613;SDS011;76041;50.924;3.932;2024-03-23T07:26:34;16.60;;;2.20;;
85613;SDS011;76041;50.924;3.932;2024-03-23T07:29:00;19.25;;;2.75;;
85613;SDS011;76041;50.924;3.932;2024-03-23T07:31:27;16.48;;;2.58;;
85613;SDS011;76041;50.924;3.932;2024-03-23T07:33:53;14.27;;;2.72;;
85613;SDS011;76041;50.924;3.932;2024-03-23T07:36:19;15.57;;;3.13;;
85613;SDS011;76041;50.924;3.932;2024-03-23T07:38:45;12.40;;;2.05;;
85613;SDS011;76041;50.924;3.932;2024-03-23T07:41:13;17.70;;;2.50;;
85613;SDS011;76041;50.924;3.932;2024-03-23T07:43:44;12.30;;;2.55;;
85613;SDS011;76041;50.924;3.932;2024-03-23T07:46:10;9.38;;;1.85;;
85613;SDS011;76041;50.924;3.932;2024-03-23T07:48:37;21.13;;;2.92;;
85613;SDS011;76041;50.924;3.932;2024-03-23T07:51:07;12.25;;;2.10;;
85613;SDS011;76041;50.924;3.932;2024-03-23T07:53:35;17.38;;;2.67;;
85613;SDS011;76041;50.924;3.932;2024-03-23T07:56:03;15.73;;;2.42;;
85613;SDS011;76041;50.924;3.932;2024-03-23T07:58:29;16.20;;;2.22;;
85613;SDS011;76041;50.924;3.932;2024-03-23T08:00:55;10.18;;;1.75;;
85613;SDS011;76041;50.924;3.932;2024-03-23T08:03:28;9.27;;;2.22;;
85613;SDS011;76041;50.924;3.932;2024-03-23T08:05:54;15.65;;;2.35;;
85613;SDS011;76041;50.924;3.932;2024-03-23T08:08:19;9.63;;;1.98;;
85613;SDS011;76041;50.924;3.932;2024-03-23T08:10:49;8.05;;;2.17;;
85613;SDS011;76041;50.924;3.932;2024-03-23T08:13:16;9.80;;;1.95;;
85613;SDS011;76041;50.924;3.932;2024-03-23T08:15:42;9.65;;;1.63;;
85613;SDS011;76041;50.924;3.932;2024-03-23T08:18:08;22.70;;;2.95;;
85613;SDS011;76041;50.924;3.932;2024-03-23T08:20:35;17.80;;;2.53;;
85613;SDS011;76041;50.924;3.932;2024-03-23T08:23:01;9.13;;;2.13;;
85613;SDS011;76041;50.924;3.932;2024-03-23T08:25:27;13.38;;;1.83;;
85613;SDS011;76041;50.924;3.932;2024-03-23T08:27:52;14.68;;;1.75;;
85613;SDS011;76041;50.924;3.932;2024-03-23T08:30:18;12.10;;;1.70;;
85613;SDS011;76041;50.924;3.932;2024-03-23T08:32:44;18.40;;;2.03;;
85613;SDS011;76041;50.924;3.932;2024-03-23T08:35:11;17.85;;;2.17;;
85613;SDS011;76041;50.924;3.932;2024-03-23T08:37:37;14.98;;;2.38;;
85613;SDS011;76041;50.924;3.932;2024-03-23T08:40:03;13.30;;;2.42;;
85613;SDS011;76041;50.924;3.932;2024-03-23T08:42:30;9.77;;;1.90;;
85613;SDS011;76041;50.924;3.932;2024-03-23T08:44:56;15.48;;;2.13;;
85613;SDS011;76041;50.924;3.932;2024-03-23T08:47:21;15.63;;;2.10;;
85613;SDS011;76041;50.924;3.932;2024-03-23T08:49:47;12.02;;;2.22;;
85613;SDS011;76041;50.924;3.932;2024-03-23T08:52:13;17.85;;;3.38;;
85613;SDS011;76041;50.924;3.932;2024-03-23T08:54:39;21.10;;;3.03;;
85613;SDS011;76041;50.924;3.932;2024-03-23T08:57:05;12.98;;;2.80;;
85613;SDS011;76041;50.924;3.932;2024-03-23T08:59:32;12.80;;;2.50;;
85613;SDS011;76041;50.924;3.932;2024-03-23T09:01:58;10.25;;;2.25;;
85613;SDS011;76041;50.924;3.932;2024-03-23T09:04:24;12.10;;;3.25;;
85613;SDS011;76041;50.924;3.932;2024-03-23T09:06:50;11.90;;;2.70;;
85613;SDS011;76041;50.924;3.932;2024-03-23T09:09:16;10.90;;;2.53;;
85613;SDS011;76041;50.924;3.932;2024-03-23T09:11:42;9.40;;;2.30;;
85613;SDS011;76041;50.924;3.932;2024-03-23T09:14:08;10.23;;;1.95;;
85613;SDS011;76041;50.924;3.932;2024-03-23T09:16:34;13.60;;;2.72;;
85613;SDS011;76041;50.924;3.932;2024-03-23T09:19:00;10.00;;;2.22;;
85613;SDS011;76041;50.924;3.932;2024-03-23T09:21:26;9.15;;;2.08;;
85613;SDS011;76041;50.924;3.932;2024-03-23T09:23:52;8.65;;;1.90;;
85613;SDS011;76041;50.924;3.932;2024-03-23T09:26:18;15.10;;;2.50;;
85613;SDS011;76041;50.924;3.932;2024-03-23T09:28:43;12.10;;;2.17;;
85613;SDS011;76041;50.924;3.932;2024-03-23T09:31:09;17.83;;;3.42;;
85613;SDS011;76041;50.924;3.932;2024-03-23T09:33:39;12.35;;;2.30;;
85613;SDS011;76041;50.924;3.932;2024-03-23T09:36:05;13.80;;;2.13;;
85613;SDS011;76041;50.924;3.932;2024-03-23T09:38:32;9.80;;;2.40;;
85613;SDS011;76041;50.924;3.932;2024-03-23T09:40:58;12.23;;;2.78;;
85613;SDS011;76041;50.924;3.932;2024-03-23T09:43:24;8.68;;;2.92;;
85613;SDS011;76041;50.924;3.932;2024-03-23T09:45:51;13.20;;;3.25;;
85613;SDS011;76041;50.924;3.932;2024-03-23T09:48:17;15.02;;;2.97;;
85613;SDS011;76041;50.924;3.932;2024-03-23T09:50:44;11.73;;;3.50;;
85613;SDS011;76041;50.924;3.932;2024-03-23T09:53:12;13.65;;;3.97;;
85613;SDS011;76041;50.924;3.932;2024-03-23T09:55:41;8.60;;;3.03;;
85613;SDS011;76041;50.924;3.932;2024-03-23T09:58:12;9.10;;;3.22;;
85613;SDS011;76041;50.924;3.932;2024-03-23T10:00:39;18.98;;;3.58;;
85613;SDS011;76041;50.924;3.932;2024-03-23T10:03:05;13.35;;;3.38;;
85613;SDS011;76041;50.924;3.932;2024-03-23T10:05:31;12.32;;;3.65;;
85613;SDS011;76041;50.924;3.932;2024-03-23T10:10:38;9.38;;;2.60;;
85613;SDS011;76041;50.924;3.932;2024-03-23T10:13:05;6.75;;;2.47;;
85613;SDS011;76041;50.924;3.932;2024-03-23T10:15:32;11.63;;;2.95;;
85613;SDS011;76041;50.924;3.932;2024-03-23T10:18:06;12.13;;;3.30;;
85613;SDS011;76041;50.924;3.932;2024-03-23T10:20:47;14.75;;;2.78;;
85613;SDS011;76041;50.924;3.932;2024-03-23T10:23:16;7.53;;;2.17;;
85613;SDS011;76041;50.924;3.932;2024-03-23T10:25:42;9.60;;;2.80;;
85613;SDS011;76041;50.924;3.932;2024-03-23T10:28:08;11.90;;;2.60;;
85613;SDS011;76041;50.924;3.932;2024-03-23T10:30:37;13.73;;;2.20;;
85613;SDS011;76041;50.924;3.932;2024-03-23T10:33:11;9.65;;;2.10;;
85613;SDS011;76041;50.924;3.932;2024-03-23T10:35:38;13.18;;;1.83;;
85613;SDS011;76041;50.924;3.932;2024-03-23T10:38:05;12.05;;;1.70;;
85613;SDS011;76041;50.924;3.932;2024-03-23T10:40:35;2.85;;;1.25;;
85613;SDS011;76041;50.924;3.932;2024-03-23T10:43:02;10.23;;;2.13;;
85613;SDS011;76041;50.924;3.932;2024-03-23T10:45:28;6.78;;;1.35;;
85613;SDS011;76041;50.924;3.932;2024-03-23T10:47:55;18.00;;;2.35;;
85613;SDS011;76041;50.924;3.932;2024-03-23T10:50:21;7.25;;;1.60;;
85613;SDS011;76041;50.924;3.932;2024-03-23T10:52:48;8.65;;;0.98;;
85613;SDS011;76041;50.924;3.932;2024-03-23T10:55:17;6.63;;;1.02;;
85613;SDS011;76041;50.924;3.932;2024-03-23T10:57:50;6.55;;;1.48;;
85613;SDS011;76041;50.924;3.932;2024-03-23T11:00:18;11.77;;;1.52;;
85613;SDS011;76041;50.924;3.932;2024-03-23T11:02:46;8.73;;;1.15;;
85613;SDS011;76041;50.924;3.932;2024-03-23T11:07:51;9.90;;;1.17;;
85613;SDS011;76041;50.924;3.932;2024-03-23T11:10:24;10.32;;;1.67;;
85613;SDS011;76041;50.924;3.932;2024-03-23T11:12:57;7.20;;;1.10;;
85613;SDS011;76041;50.924;3.932;2024-03-23T11:15:23;6.70;;;0.90;;
85613;SDS011;76041;50.924;3.932;2024-03-23T11:18:05;7.13;;;1.00;;
85613;SDS011;76041;50.924;3.932;2024-03-23T11:20:37;5.45;;;1.00;;
85613;SDS011;76041;50.924;3.932;2024-03-23T11:23:04;8.45;;;1.45;;
85613;SDS011;76041;50.924;3.932;2024-03-23T11:25:30;5.75;;;1.02;;
85613;SDS011;76041;50.924;3.932;2024-03-23T11:27:57;12.00;;;1.40;;
85613;SDS011;76041;50.924;3.932;2024-03-23T11:30:34;7.07;;;0.98;;
85613;SDS011;76041;50.924;3.932;2024-03-23T11:33:00;10.35;;;1.38;;
85613;SDS011;76041;50.924;3.932;2024-03-23T11:35:28;8.45;;;0.90;;
85613;SDS011;76041;50.924;3.932;2024-03-23T11:38:06;8.95;;;0.85;;
85613;SDS011;76041;50.924;3.932;2024-03-23T11:40:45;7.47;;;1.20;;
85613;SDS011;76041;50.924;3.932;2024-03-23T11:43:18;9.88;;;1.00;;
85613;SDS011;76041;50.924;3.932;2024-03-23T11:45:45;5.68;;;1.30;;
85613;SDS011;76041;50.924;3.932;2024-03-23T11:48:13;7.65;;;1.30;;
85613;SDS011;76041;50.924;3.932;2024-03-23T11:50:41;7.07;;;1.10;;
85613;SDS011;76041;50.924;3.932;2024-03-23T11:55:42;10.55;;;1.17;;
85613;SDS011;76041;50.924;3.932;2024-03-23T11:58:11;7.60;;;1.13;;
85613;SDS011;76041;50.924;3.932;2024-03-23T12:00:38;8.70;;;0.80;;
85613;SDS011;76041;50.924;3.932;2024-03-23T12:03:04;6.55;;;0.93;;
85613;SDS011;76041;50.924;3.932;2024-03-23T12:05:31;4.68;;;0.98;;
85613;SDS011;76041;50.924;3.932;2024-03-23T12:08:40;5.82;;;0.82;;
85613;SDS011;76041;50.924;3.932;2024-03-23T12:11:04;10.25;;;1.17;;
85613;SDS011;76041;50.924;3.932;2024-03-23T12:13:32;10.05;;;1.10;;
85613;SDS011;76041;50.924;3.932;2024-03-23T12:16:10;14.80;;;1.25;;
85613;SDS011;76041;50.924;3.932;2024-03-23T12:18:43;5.93;;;0.85;;
85613;SDS011;76041;50.924;3.932;2024-03-23T12:21:09;4.07;;;1.00;;
85613;SDS011;76041;50.924;3.932;2024-03-23T12:23:36;4.35;;;0.75;;
85613;SDS011;76041;50.924;3.932;2024-03-23T12:26:04;7.97;;;1.42;;
85613;SDS011;76041;50.924;3.932;2024-03-23T12:28:30;7.30;;;1.02;;
85613;SDS011;76041;50.924;3.932;2024-03-23T12:30:56;8.70;;;1.13;;
85613;SDS011;76041;50.924;3.932;2024-03-23T12:33:22;6.75;;;1.20;;
85613;SDS011;76041;50.924;3.932;2024-03-23T12:35:49;9.10;;;1.10;;
85613;SDS011;76041;50.924;3.932;2024-03-23T12:38:16;4.95;;;0.80;;
85613;SDS011;76041;50.924;3.932;2024-03-23T12:40:43;8.95;;;1.13;;
85613;SDS011;76041;50.924;3.932;2024-03-23T12:45:45;7.47;;;0.98;;
85613;SDS011;76041;50.924;3.932;2024-03-23T12:48:14;7.32;;;1.13;;
85613;SDS011;76041;50.924;3.932;2024-03-23T12:50:40;8.10;;;0.85;;
85613;SDS011;76041;50.924;3.932;2024-03-23T12:53:06;12.63;;;1.92;;
85613;SDS011;76041;50.924;3.932;2024-03-23T12:55:32;8.63;;;1.30;;
85613;SDS011;76041;50.924;3.932;2024-03-23T12:58:00;9.63;;;2.22;;
85613;SDS011;76041;50.924;3.932;2024-03-23T13:00:26;6.68;;;1.38;;
85613;SDS011;76041;50.924;3.932;2024-03-23T13:02:52;4.25;;;0.95;;
85613;SDS011;76041;50.924;3.932;2024-03-23T13:05:18;6.00;;;1.60;;
85613;SDS011;76041;50.924;3.932;2024-03-23T13:07:44;7.68;;;1.23;;
85613;SDS011;76041;50.924;3.932;2024-03-23T13:10:10;6.50;;;1.05;;
85613;SDS011;76041;50.924;3.932;2024-03-23T13:12:36;6.30;;;1.98;;
85613;SDS011;76041;50.924;3.932;2024-03-23T13:15:01;4.95;;;1.00;;
85613;SDS011;76041;50.924;3.932;2024-03-23T13:17:27;5.43;;;0.85;;
85613;SDS011;76041;50.924;3.932;2024-03-23T13:19:54;5.50;;;0.70;;
85613;SDS011;76041;50.924;3.932;2024-03-23T13:22:23;6.03;;;1.52;;
85613;SDS011;76041;50.924;3.932;2024-03-23T13:24:49;6.65;;;1.25;;
85613;SDS011;76041;50.924;3.932;2024-03-23T13:27:15;5.68;;;1.23;;
85613;SDS011;76041;50.924;3.932;2024-03-23T13:29:41;11.32;;;1.73;;
85613;SDS011;76041;50.924;3.932;2024-03-23T13:32:07;7.57;;;1.38;;
85613;SDS011;76041;50.924;3.932;2024-03-23T13:34:34;6.28;;;1.10;;
85613;SDS011;76041;50.924;3.932;2024-03-23T13:37:00;8.98;;;1.45;;
85613;SDS011;76041;50.924;3.932;2024-03-23T13:39:26;10.98;;;1.95;;
85613;SDS011;76041;50.924;3.932;2024-03-23T13:41:53;6.10;;;1.45;;
85613;SDS011;76041;50.924;3.932;2024-03-23T13:44:22;9.20;;;1.52;;
85613;SDS011;76041;50.924;3.932;2024-03-23T13:46:48;9.02;;;2.30;;
85613;SDS011;76041;50.924;3.932;2024-03-23T13:49:27;9.98;;;1.27;;
85613;SDS011;76041;50.924;3.932;2024-03-23T13:51:54;9.13;;;1.20;;
85613;SDS011;76041;50.924;3.932;2024-03-23T13:54:22;9.70;;;1.30;;
85613;SDS011;76041;50.924;3.932;2024-03-23T13:56:50;10.38;;;1.48;;
85613;SDS011;76041;50.924;3.932;2024-03-23T13:59:16;9.93;;;1.67;;
85613;SDS011;76041;50.924;3.932;2024-03-23T14:01:43;14.65;;;1.40;;
85613;SDS011;76041;50.924;3.932;2024-03-23T14:04:10;6.95;;;1.50;;
85613;SDS011;76041;50.924;3.932;2024-03-23T14:06:37;6.05;;;1.10;;
85613;SDS011;76041;50.924;3.932;2024-03-23T14:09:03;6.13;;;0.95;;
85613;SDS011;76041;50.924;3.932;2024-03-23T14:11:30;6.10;;;1.00;;
85613;SDS011;76041;50.924;3.932;2024-03-23T14:13:56;6.88;;;0.95;;
85613;SDS011;76041;50.924;3.932;2024-03-23T14:16:22;5.88;;;0.80;;
85613;SDS011;76041;50.924;3.932;2024-03-23T14:18:48;5.38;;;0.98;;
85613;SDS011;76041;50.924;3.932;2024-03-23T14:21:13;7.60;;;1.10;;
85613;SDS011;76041;50.924;3.932;2024-03-23T14:23:39;7.95;;;1.20;;
85613;SDS011;76041;50.924;3.932;2024-03-23T14:26:08;10.57;;;1.23;;
85613;SDS011;76041;50.924;3.932;2024-03-23T14:28:34;7.45;;;1.38;;
85613;SDS011;76041;50.924;3.932;2024-03-23T14:31:00;10.00;;;1.77;;
85613;SDS011;76041;50.924;3.932;2024-03-23T14:33:26;5.30;;;1.13;;
85613;SDS011;76041;50.924;3.932;2024-03-23T14:35:53;5.47;;;1.00;;
85613;SDS011;76041;50.924;3.932;2024-03-23T14:38:19;7.28;;;1.08;;
85613;SDS011;76041;50.924;3.932;2024-03-23T14:40:46;7.40;;;1.50;;
85613;SDS011;76041;50.924;3.932;2024-03-23T14:43:12;4.85;;;1.20;;
85613;SDS011;76041;50.924;3.932;2024-03-23T14:46:25;6.65;;;1.00;;
85613;SDS011;76041;50.924;3.932;2024-03-23T14:48:37;5.95;;;1.30;;
85613;SDS011;76041;50.924;3.932;2024-03-23T14:51:04;6.88;;;1.23;;
85613;SDS011;76041;50.924;3.932;2024-03-23T14:53:34;5.40;;;1.30;;
85613;SDS011;76041;50.924;3.932;2024-03-23T14:56:01;7.00;;;1.13;;
85613;SDS011;76041;50.924;3.932;2024-03-23T14:58:28;9.48;;;1.48;;
85613;SDS011;76041;50.924;3.932;2024-03-23T15:01:04;6.82;;;1.20;;
85613;SDS011;76041;50.924;3.932;2024-03-23T15:03:34;7.53;;;1.42;;
85613;SDS011;76041;50.924;3.932;2024-03-23T15:06:01;11.18;;;1.20;;
85613;SDS011;76041;50.924;3.932;2024-03-23T15:08:27;6.82;;;0.85;;
85613;SDS011;76041;50.924;3.932;2024-03-23T15:10:54;7.63;;;1.10;;
85613;SDS011;76041;50.924;3.932;2024-03-23T15:13:23;7.85;;;1.10;;
85613;SDS011;76041;50.924;3.932;2024-03-23T15:15:50;7.20;;;1.40;;
85613;SDS011;76041;50.924;3.932;2024-03-23T15:18:17;7.53;;;0.85;;
85613;SDS011;76041;50.924;3.932;2024-03-23T15:20:55;6.88;;;1.17;;
85613;SDS011;76041;50.924;3.932;2024-03-23T15:23:21;4.72;;;1.20;;
85613;SDS011;76041;50.924;3.932;2024-03-23T15:25:54;10.10;;;1.30;;
85613;SDS011;76041;50.924;3.932;2024-03-23T15:28:27;15.27;;;1.10;;
85613;SDS011;76041;50.924;3.932;2024-03-23T15:31:04;6.80;;;1.30;;
85613;SDS011;76041;50.924;3.932;2024-03-23T15:33:30;5.18;;;0.90;;
85613;SDS011;76041;50.924;3.932;2024-03-23T15:36:01;4.68;;;0.93;;
85613;SDS011;76041;50.924;3.932;2024-03-23T15:38:28;8.33;;;1.07;;
85613;SDS011;76041;50.924;3.932;2024-03-23T15:40:56;7.00;;;1.02;;
85613;SDS011;76041;50.924;3.932;2024-03-23T15:43:22;7.95;;;1.48;;